This is the latest recevied weather packets stored in our database for station/object KG0HG. If no packets are shown the sender has not sent any weather packets the latest 10 day(s).
| Time | Temp. | Humidity | Pressure | Rain* | Wind** | Luminosity | Snow |
|---|---|---|---|---|---|---|---|
| 1777420306 | 15.56° C | 70% | 1013.8 hPa | 0 mm | - | 47 W/m² | - |
| 1777420001 | 15.56° C | 68% | 1014.1 hPa | 0 mm | - | 42 W/m² | - |
| 1777419698 | 16.11° C | 68% | 1013.9 hPa | 0 mm | - | 40 W/m² | - |
| 1777419396 | 16.11° C | 68% | 1013.8 hPa | 0 mm | - | 65 W/m² | - |
| 1777419090 | 15.56° C | 68% | 1013.7 hPa | 0 mm | - | 53 W/m² | - |
| 1777418789 | 15° C | 69% | 1013.9 hPa | 0 mm | - | 144 W/m² | - |
| 1777418487 | 15.56° C | 69% | 1014.1 hPa | 0 mm | - | 43 W/m² | - |
| 1777418182 | 15.56° C | 69% | 1013.8 hPa | 0 mm | - | 57 W/m² | - |
| 1777417878 | 15.56° C | 69% | 1013.9 hPa | 0 mm | - | 71 W/m² | - |
| 1777417575 | 15° C | 69% | 1013.9 hPa | 0 mm | - | 73 W/m² | - |
| 1777417270 | 15.56° C | 69% | 1013.8 hPa | 0 mm | - | 62 W/m² | - |
| 1777416966 | 15.56° C | 68% | 1013.9 hPa | 0 mm | - | 75 W/m² | - |
| 1777416661 | 15.56° C | 69% | 1014 hPa | 0 mm | - | 69 W/m² | - |
| 1777416358 | 15.56° C | 69% | 1014.1 hPa | 0 mm | - | 63 W/m² | - |
| 1777416057 | 15.56° C | 68% | 1014.2 hPa | 0 mm | - | 65 W/m² | - |
| 1777415752 | 15° C | 71% | 1013.8 hPa | 0 mm | - | 90 W/m² | - |
| 1777415449 | 15° C | 70% | 1014.1 hPa | 0 mm | - | 105 W/m² | - |
| 1777415144 | 15° C | 71% | 1014.3 hPa | 0 mm | - | 87 W/m² | - |
| 1777414839 | 14.44° C | 72% | 1014.2 hPa | 0 mm | - | 102 W/m² | - |
| 1777414534 | 14.44° C | 72% | 1014 hPa | 0 mm | - | 105 W/m² | - |
| 1777414234 | 14.44° C | 70% | 1014 hPa | 0 mm | - | 85 W/m² | - |
| 1777413929 | 14.44° C | 71% | 1013.9 hPa | 0 mm | - | 118 W/m² | - |
| 1777413624 | 14.44° C | 70% | 1014.1 hPa | 0 mm | - | 123 W/m² | - |
| 1777413321 | 14.44° C | 72% | 1013.8 hPa | 0 mm | - | 130 W/m² | - |
| 1777413016 | 14.44° C | 71% | 1014.2 hPa | 0 mm | - | 133 W/m² | - |
* Rain latest hour (hover to see other rain measurements)
** Current wind speed in m/s (hover to see current wind gust speed)